sensor_id;sensor_type;location;lat;lon;timestamp;temperature;humidity
16384;DHT22;8301;51.440;6.610;2023-04-19T00:00:45;10.90;99.90
16384;DHT22;8301;51.440;6.610;2023-04-19T00:03:13;10.90;1.00
16384;DHT22;8301;51.440;6.610;2023-04-19T00:05:40;10.90;1.00
16384;DHT22;8301;51.440;6.610;2023-04-19T00:08:07;10.90;99.90
16384;DHT22;8301;51.440;6.610;2023-04-19T00:10:34;10.90;99.90
16384;DHT22;8301;51.440;6.610;2023-04-19T00:13:01;10.90;1.00
16384;DHT22;8301;51.440;6.610;2023-04-19T00:15:28;10.80;1.00
16384;DHT22;8301;51.440;6.610;2023-04-19T00:17:54;10.80;1.00
16384;DHT22;8301;51.440;6.610;2023-04-19T00:20:21;10.80;43.60
16384;DHT22;8301;51.440;6.610;2023-04-19T00:22:48;10.80;1.00
16384;DHT22;8301;51.440;6.610;2023-04-19T00:25:15;10.70;1.00
16384;DHT22;8301;51.440;6.610;2023-04-19T00:27:42;10.80;92.20
16384;DHT22;8301;51.440;6.610;2023-04-19T00:30:09;10.70;1.00
16384;DHT22;8301;51.440;6.610;2023-04-19T00:32:36;10.70;99.90
16384;DHT22;8301;51.440;6.610;2023-04-19T00:35:03;10.70;99.90
16384;DHT22;8301;51.440;6.610;2023-04-19T00:37:30;10.70;1.00
16384;DHT22;8301;51.440;6.610;2023-04-19T00:39:58;10.70;1.00
16384;DHT22;8301;51.440;6.610;2023-04-19T00:42:25;10.80;1.00
16384;DHT22;8301;51.440;6.610;2023-04-19T00:44:52;10.80;1.00
16384;DHT22;8301;51.440;6.610;2023-04-19T00:47:18;10.80;99.90
16384;DHT22;8301;51.440;6.610;2023-04-19T00:49:45;10.80;1.00
16384;DHT22;8301;51.440;6.610;2023-04-19T00:52:12;10.80;1.00
16384;DHT22;8301;51.440;6.610;2023-04-19T00:54:42;10.80;1.00
16384;DHT22;8301;51.440;6.610;2023-04-19T00:57:10;10.90;1.00
16384;DHT22;8301;51.440;6.610;2023-04-19T00:59:37;10.90;1.00
16384;DHT22;8301;51.440;6.610;2023-04-19T01:02:04;10.90;99.90
16384;DHT22;8301;51.440;6.610;2023-04-19T01:04:32;10.90;99.90
16384;DHT22;8301;51.440;6.610;2023-04-19T01:07:00;11.00;2.40
16384;DHT22;8301;51.440;6.610;2023-04-19T01:09:26;11.00;99.90
16384;DHT22;8301;51.440;6.610;2023-04-19T01:11:53;11.00;99.90
16384;DHT22;8301;51.440;6.610;2023-04-19T01:14:20;11.00;1.00
16384;DHT22;8301;51.440;6.610;2023-04-19T01:16:47;11.00;1.00
16384;DHT22;8301;51.440;6.610;2023-04-19T01:19:15;11.00;1.00
16384;DHT22;8301;51.440;6.610;2023-04-19T01:21:43;11.10;1.00
16384;DHT22;8301;51.440;6.610;2023-04-19T01:24:11;11.10;1.00
16384;DHT22;8301;51.440;6.610;2023-04-19T01:26:38;11.10;1.00
16384;DHT22;8301;51.440;6.610;2023-04-19T01:29:04;11.10;1.00
16384;DHT22;8301;51.440;6.610;2023-04-19T01:31:31;11.10;99.90
16384;DHT22;8301;51.440;6.610;2023-04-19T01:33:58;11.10;1.00
16384;DHT22;8301;51.440;6.610;2023-04-19T01:36:25;11.10;99.90
16384;DHT22;8301;51.440;6.610;2023-04-19T01:38:52;11.10;1.00
16384;DHT22;8301;51.440;6.610;2023-04-19T01:41:19;11.10;1.00
16384;DHT22;8301;51.440;6.610;2023-04-19T01:43:47;11.10;1.00
16384;DHT22;8301;51.440;6.610;2023-04-19T01:46:14;11.10;1.00
16384;DHT22;8301;51.440;6.610;2023-04-19T01:48:41;11.00;1.00
16384;DHT22;8301;51.440;6.610;2023-04-19T01:51:08;11.00;1.00
16384;DHT22;8301;51.440;6.610;2023-04-19T01:53:34;11.00;99.90
16384;DHT22;8301;51.440;6.610;2023-04-19T01:56:02;11.00;1.00
16384;DHT22;8301;51.440;6.610;2023-04-19T01:58:29;11.00;1.00
16384;DHT22;8301;51.440;6.610;2023-04-19T02:00:56;11.00;57.80
16384;DHT22;8301;51.440;6.610;2023-04-19T02:03:23;11.00;1.00
16384;DHT22;8301;51.440;6.610;2023-04-19T02:05:49;11.00;99.90
16384;DHT22;8301;51.440;6.610;2023-04-19T02:08:16;11.00;1.00
16384;DHT22;8301;51.440;6.610;2023-04-19T02:10:43;11.00;1.00
16384;DHT22;8301;51.440;6.610;2023-04-19T02:13:10;11.00;99.90
16384;DHT22;8301;51.440;6.610;2023-04-19T02:15:37;10.90;99.90
16384;DHT22;8301;51.440;6.610;2023-04-19T02:18:03;10.90;25.10
16384;DHT22;8301;51.440;6.610;2023-04-19T02:20:31;10.90;1.00
16384;DHT22;8301;51.440;6.610;2023-04-19T02:23:01;10.90;1.00
16384;DHT22;8301;51.440;6.610;2023-04-19T02:25:28;10.90;99.90
16384;DHT22;8301;51.440;6.610;2023-04-19T02:27:55;10.90;99.90
16384;DHT22;8301;51.440;6.610;2023-04-19T02:30:22;10.90;99.90
16384;DHT22;8301;51.440;6.610;2023-04-19T02:32:49;10.80;47.00
16384;DHT22;8301;51.440;6.610;2023-04-19T02:35:16;10.80;99.90
16384;DHT22;8301;51.440;6.610;2023-04-19T02:37:44;10.80;99.90
16384;DHT22;8301;51.440;6.610;2023-04-19T02:40:10;10.70;99.90
16384;DHT22;8301;51.440;6.610;2023-04-19T02:42:37;10.60;99.90
16384;DHT22;8301;51.440;6.610;2023-04-19T02:45:04;10.60;99.90
16384;DHT22;8301;51.440;6.610;2023-04-19T02:47:31;10.50;99.90
16384;DHT22;8301;51.440;6.610;2023-04-19T02:49:58;10.50;1.00
16384;DHT22;8301;51.440;6.610;2023-04-19T02:52:25;10.40;99.90
16384;DHT22;8301;51.440;6.610;2023-04-19T02:54:52;10.40;99.90
16384;DHT22;8301;51.440;6.610;2023-04-19T02:57:19;10.30;99.90
16384;DHT22;8301;51.440;6.610;2023-04-19T02:59:46;10.30;99.90
16384;DHT22;8301;51.440;6.610;2023-04-19T03:02:13;10.20;99.90
16384;DHT22;8301;51.440;6.610;2023-04-19T03:04:39;10.20;99.90
16384;DHT22;8301;51.440;6.610;2023-04-19T03:07:08;10.20;1.00
16384;DHT22;8301;51.440;6.610;2023-04-19T03:09:35;10.20;99.90
16384;DHT22;8301;51.440;6.610;2023-04-19T03:12:02;10.20;7.00
16384;DHT22;8301;51.440;6.610;2023-04-19T03:14:29;10.20;99.90
16384;DHT22;8301;51.440;6.610;2023-04-19T03:16:55;10.20;96.10
16384;DHT22;8301;51.440;6.610;2023-04-19T03:19:22;10.20;1.00
16384;DHT22;8301;51.440;6.610;2023-04-19T03:21:49;10.30;59.40
16384;DHT22;8301;51.440;6.610;2023-04-19T03:24:22;10.30;1.00
16384;DHT22;8301;51.440;6.610;2023-04-19T03:26:45;10.30;99.90
16384;DHT22;8301;51.440;6.610;2023-04-19T03:29:12;10.30;99.90
16384;DHT22;8301;51.440;6.610;2023-04-19T03:31:39;10.20;52.10
16384;DHT22;8301;51.440;6.610;2023-04-19T03:34:06;10.30;99.90
16384;DHT22;8301;51.440;6.610;2023-04-19T03:36:33;10.30;58.70
16384;DHT22;8301;51.440;6.610;2023-04-19T03:39:01;10.30;1.00
16384;DHT22;8301;51.440;6.610;2023-04-19T03:41:28;10.40;1.00
16384;DHT22;8301;51.440;6.610;2023-04-19T03:43:54;10.40;1.00
16384;DHT22;8301;51.440;6.610;2023-04-19T03:46:24;10.40;1.00
16384;DHT22;8301;51.440;6.610;2023-04-19T03:48:50;10.50;1.00
16384;DHT22;8301;51.440;6.610;2023-04-19T03:51:18;10.50;99.90
16384;DHT22;8301;51.440;6.610;2023-04-19T03:53:44;10.50;1.00
16384;DHT22;8301;51.440;6.610;2023-04-19T03:56:11;10.50;99.90
16384;DHT22;8301;51.440;6.610;2023-04-19T03:58:38;10.50;1.00
16384;DHT22;8301;51.440;6.610;2023-04-19T04:01:05;10.50;1.00
16384;DHT22;8301;51.440;6.610;2023-04-19T04:03:33;10.50;1.00
16384;DHT22;8301;51.440;6.610;2023-04-19T04:06:00;10.50;1.00
16384;DHT22;8301;51.440;6.610;2023-04-19T04:08:27;10.50;1.00
16384;DHT22;8301;51.440;6.610;2023-04-19T04:10:54;10.50;1.00
16384;DHT22;8301;51.440;6.610;2023-04-19T04:13:20;10.50;99.90
16384;DHT22;8301;51.440;6.610;2023-04-19T04:15:47;10.50;64.20
16384;DHT22;8301;51.440;6.610;2023-04-19T04:18:14;10.50;99.90
16384;DHT22;8301;51.440;6.610;2023-04-19T04:20:42;10.50;99.90
16384;DHT22;8301;51.440;6.610;2023-04-19T04:23:09;10.40;99.90
16384;DHT22;8301;51.440;6.610;2023-04-19T04:25:36;10.40;6.70
16384;DHT22;8301;51.440;6.610;2023-04-19T04:28:04;10.40;1.00
16384;DHT22;8301;51.440;6.610;2023-04-19T04:30:31;10.40;1.00
16384;DHT22;8301;51.440;6.610;2023-04-19T04:32:59;10.30;1.00
16384;DHT22;8301;51.440;6.610;2023-04-19T04:35:26;10.30;1.00
16384;DHT22;8301;51.440;6.610;2023-04-19T04:37:54;10.20;1.00
16384;DHT22;8301;51.440;6.610;2023-04-19T04:40:21;10.10;1.00
16384;DHT22;8301;51.440;6.610;2023-04-19T04:42:48;10.00;1.00
16384;DHT22;8301;51.440;6.610;2023-04-19T04:45:16;10.00;1.00
16384;DHT22;8301;51.440;6.610;2023-04-19T04:47:43;9.90;1.00
16384;DHT22;8301;51.440;6.610;2023-04-19T04:50:13;9.90;1.00
16384;DHT22;8301;51.440;6.610;2023-04-19T04:52:40;9.80;1.00
16384;DHT22;8301;51.440;6.610;2023-04-19T04:55:07;9.80;1.00
16384;DHT22;8301;51.440;6.610;2023-04-19T04:57:34;9.80;1.00
16384;DHT22;8301;51.440;6.610;2023-04-19T05:00:02;9.70;1.00
16384;DHT22;8301;51.440;6.610;2023-04-19T05:02:29;9.60;1.00
16384;DHT22;8301;51.440;6.610;2023-04-19T05:04:56;9.60;1.00
16384;DHT22;8301;51.440;6.610;2023-04-19T05:07:23;9.60;1.00
16384;DHT22;8301;51.440;6.610;2023-04-19T05:09:50;9.60;30.30
16384;DHT22;8301;51.440;6.610;2023-04-19T05:12:17;9.60;53.20
16384;DHT22;8301;51.440;6.610;2023-04-19T05:14:43;9.60;1.00
16384;DHT22;8301;51.440;6.610;2023-04-19T05:17:10;9.60;1.00
16384;DHT22;8301;51.440;6.610;2023-04-19T05:19:37;9.60;1.00
16384;DHT22;8301;51.440;6.610;2023-04-19T05:22:04;9.50;1.00
16384;DHT22;8301;51.440;6.610;2023-04-19T05:24:31;9.50;1.00
16384;DHT22;8301;51.440;6.610;2023-04-19T05:26:58;9.50;1.00
16384;DHT22;8301;51.440;6.610;2023-04-19T05:29:26;9.50;1.00
16384;DHT22;8301;51.440;6.610;2023-04-19T05:31:53;9.60;1.00
16384;DHT22;8301;51.440;6.610;2023-04-19T05:34:20;9.60;1.00
16384;DHT22;8301;51.440;6.610;2023-04-19T05:36:46;9.70;1.00
16384;DHT22;8301;51.440;6.610;2023-04-19T05:39:13;9.70;1.00
16384;DHT22;8301;51.440;6.610;2023-04-19T05:41:40;9.80;1.00
16384;DHT22;8301;51.440;6.610;2023-04-19T05:44:07;9.80;99.90
16384;DHT22;8301;51.440;6.610;2023-04-19T05:46:35;9.80;99.90
16384;DHT22;8301;51.440;6.610;2023-04-19T05:49:01;9.80;42.70
16384;DHT22;8301;51.440;6.610;2023-04-19T05:51:30;9.90;90.40
16384;DHT22;8301;51.440;6.610;2023-04-19T05:54:04;9.90;9.40
16384;DHT22;8301;51.440;6.610;2023-04-19T05:56:26;9.90;1.00
16384;DHT22;8301;51.440;6.610;2023-04-19T05:58:53;10.00;1.00
16384;DHT22;8301;51.440;6.610;2023-04-19T06:01:22;10.00;1.00
16384;DHT22;8301;51.440;6.610;2023-04-19T06:03:49;10.00;1.00
16384;DHT22;8301;51.440;6.610;2023-04-19T06:06:18;10.00;1.00
16384;DHT22;8301;51.440;6.610;2023-04-19T06:08:45;10.00;1.00
16384;DHT22;8301;51.440;6.610;2023-04-19T06:11:12;10.00;1.00
16384;DHT22;8301;51.440;6.610;2023-04-19T06:13:38;10.10;1.00
16384;DHT22;8301;51.440;6.610;2023-04-19T06:16:06;10.00;1.00
16384;DHT22;8301;51.440;6.610;2023-04-19T06:18:33;10.00;99.90
16384;DHT22;8301;51.440;6.610;2023-04-19T06:20:59;10.10;99.90
16384;DHT22;8301;51.440;6.610;2023-04-19T06:23:26;10.10;99.90
16384;DHT22;8301;51.440;6.610;2023-04-19T06:25:53;10.20;99.90
16384;DHT22;8301;51.440;6.610;2023-04-19T06:28:20;10.20;99.90
16384;DHT22;8301;51.440;6.610;2023-04-19T06:30:48;10.40;99.90
16384;DHT22;8301;51.440;6.610;2023-04-19T06:33:17;10.30;99.90
16384;DHT22;8301;51.440;6.610;2023-04-19T06:35:44;10.30;99.90
16384;DHT22;8301;51.440;6.610;2023-04-19T06:38:11;10.20;47.00
16384;DHT22;8301;51.440;6.610;2023-04-19T06:40:38;10.30;53.40
16384;DHT22;8301;51.440;6.610;2023-04-19T06:43:05;10.30;12.60
16384;DHT22;8301;51.440;6.610;2023-04-19T06:45:31;10.50;62.40
16384;DHT22;8301;51.440;6.610;2023-04-19T06:47:58;10.50;1.00
16384;DHT22;8301;51.440;6.610;2023-04-19T06:50:25;10.60;1.00
16384;DHT22;8301;51.440;6.610;2023-04-19T06:52:53;10.80;1.00
16384;DHT22;8301;51.440;6.610;2023-04-19T06:55:20;10.70;1.00
16384;DHT22;8301;51.440;6.610;2023-04-19T06:57:47;10.80;1.00
16384;DHT22;8301;51.440;6.610;2023-04-19T07:00:14;10.90;1.00
16384;DHT22;8301;51.440;6.610;2023-04-19T07:02:41;11.00;1.00
16384;DHT22;8301;51.440;6.610;2023-04-19T07:05:08;10.90;1.00
16384;DHT22;8301;51.440;6.610;2023-04-19T07:07:34;11.10;1.00
16384;DHT22;8301;51.440;6.610;2023-04-19T07:10:02;11.40;1.00
16384;DHT22;8301;51.440;6.610;2023-04-19T07:12:29;11.70;1.00
16384;DHT22;8301;51.440;6.610;2023-04-19T07:14:56;11.60;1.00
16384;DHT22;8301;51.440;6.610;2023-04-19T07:17:23;11.50;1.00
16384;DHT22;8301;51.440;6.610;2023-04-19T07:19:51;11.40;1.00
16384;DHT22;8301;51.440;6.610;2023-04-19T07:22:18;11.50;1.00
16384;DHT22;8301;51.440;6.610;2023-04-19T07:24:47;11.80;1.00
16384;DHT22;8301;51.440;6.610;2023-04-19T07:27:15;11.90;1.00
16384;DHT22;8301;51.440;6.610;2023-04-19T07:29:43;11.90;1.00
16384;DHT22;8301;51.440;6.610;2023-04-19T07:32:10;12.00;1.00
16384;DHT22;8301;51.440;6.610;2023-04-19T07:34:41;11.90;1.00
16384;DHT22;8301;51.440;6.610;2023-04-19T07:37:08;11.60;1.00
16384;DHT22;8301;51.440;6.610;2023-04-19T07:39:35;11.50;1.00
16384;DHT22;8301;51.440;6.610;2023-04-19T07:42:02;11.60;1.00
16384;DHT22;8301;51.440;6.610;2023-04-19T07:44:29;11.70;1.00
16384;DHT22;8301;51.440;6.610;2023-04-19T07:46:55;11.70;1.00
16384;DHT22;8301;51.440;6.610;2023-04-19T07:49:22;11.90;1.00
16384;DHT22;8301;51.440;6.610;2023-04-19T07:51:49;11.90;1.00
16384;DHT22;8301;51.440;6.610;2023-04-19T07:54:16;11.90;1.00
16384;DHT22;8301;51.440;6.610;2023-04-19T07:56:44;12.00;1.00
16384;DHT22;8301;51.440;6.610;2023-04-19T07:59:11;11.90;1.00
16384;DHT22;8301;51.440;6.610;2023-04-19T08:01:38;12.10;1.00
16384;DHT22;8301;51.440;6.610;2023-04-19T08:04:05;12.00;1.00
16384;DHT22;8301;51.440;6.610;2023-04-19T08:06:32;12.00;1.00
16384;DHT22;8301;51.440;6.610;2023-04-19T08:08:59;11.90;1.00
16384;DHT22;8301;51.440;6.610;2023-04-19T08:11:26;12.00;1.00
16384;DHT22;8301;51.440;6.610;2023-04-19T08:13:53;12.00;1.00
16384;DHT22;8301;51.440;6.610;2023-04-19T08:16:20;12.00;1.00
16384;DHT22;8301;51.440;6.610;2023-04-19T08:18:46;11.80;1.00
16384;DHT22;8301;51.440;6.610;2023-04-19T08:21:15;11.70;1.00
16384;DHT22;8301;51.440;6.610;2023-04-19T08:23:42;11.70;1.00
16384;DHT22;8301;51.440;6.610;2023-04-19T08:26:08;11.80;1.00
16384;DHT22;8301;51.440;6.610;2023-04-19T08:28:35;11.90;1.00
16384;DHT22;8301;51.440;6.610;2023-04-19T08:31:06;11.90;1.00
16384;DHT22;8301;51.440;6.610;2023-04-19T08:33:33;11.80;1.00
16384;DHT22;8301;51.440;6.610;2023-04-19T08:36:00;11.90;1.00
16384;DHT22;8301;51.440;6.610;2023-04-19T08:38:27;12.10;1.00
16384;DHT22;8301;51.440;6.610;2023-04-19T08:40:55;12.20;1.00
16384;DHT22;8301;51.440;6.610;2023-04-19T08:43:24;12.30;1.00
16384;DHT22;8301;51.440;6.610;2023-04-19T08:45:52;12.60;1.00
16384;DHT22;8301;51.440;6.610;2023-04-19T08:48:19;12.60;1.00
16384;DHT22;8301;51.440;6.610;2023-04-19T08:50:47;12.70;1.00
16384;DHT22;8301;51.440;6.610;2023-04-19T08:53:14;12.60;1.00
16384;DHT22;8301;51.440;6.610;2023-04-19T08:55:41;12.60;1.00
16384;DHT22;8301;51.440;6.610;2023-04-19T08:58:08;12.70;1.00
16384;DHT22;8301;51.440;6.610;2023-04-19T09:00:37;12.70;1.00
16384;DHT22;8301;51.440;6.610;2023-04-19T09:03:03;12.70;1.00
16384;DHT22;8301;51.440;6.610;2023-04-19T09:05:32;12.50;1.00
16384;DHT22;8301;51.440;6.610;2023-04-19T09:11:00;12.70;1.00
16384;DHT22;8301;51.440;6.610;2023-04-19T09:13:30;12.60;1.00
16384;DHT22;8301;51.440;6.610;2023-04-19T09:15:57;12.60;1.00
16384;DHT22;8301;51.440;6.610;2023-04-19T09:18:29;12.70;1.00
16384;DHT22;8301;51.440;6.610;2023-04-19T09:20:55;12.80;1.00
16384;DHT22;8301;51.440;6.610;2023-04-19T09:23:28;12.80;1.00
16384;DHT22;8301;51.440;6.610;2023-04-19T09:25:57;13.00;1.00
16384;DHT22;8301;51.440;6.610;2023-04-19T09:28:29;12.70;1.00
16384;DHT22;8301;51.440;6.610;2023-04-19T09:30:56;12.90;1.00
16384;DHT22;8301;51.440;6.610;2023-04-19T09:33:30;13.00;1.00
16384;DHT22;8301;51.440;6.610;2023-04-19T09:35:58;13.20;1.00
16384;DHT22;8301;51.440;6.610;2023-04-19T09:38:25;12.90;1.00
16384;DHT22;8301;51.440;6.610;2023-04-19T09:40:53;13.00;1.00
16384;DHT22;8301;51.440;6.610;2023-04-19T09:43:26;12.80;1.00
16384;DHT22;8301;51.440;6.610;2023-04-19T09:45:53;13.30;1.00
16384;DHT22;8301;51.440;6.610;2023-04-19T09:48:21;13.30;1.00
16384;DHT22;8301;51.440;6.610;2023-04-19T09:53:27;13.60;1.00
16384;DHT22;8301;51.440;6.610;2023-04-19T09:55:54;13.80;1.00
16384;DHT22;8301;51.440;6.610;2023-04-19T09:58:27;13.90;1.00
16384;DHT22;8301;51.440;6.610;2023-04-19T10:00:53;13.40;1.00
16384;DHT22;8301;51.440;6.610;2023-04-19T10:03:21;13.50;1.00
16384;DHT22;8301;51.440;6.610;2023-04-19T10:05:50;13.20;1.00
16384;DHT22;8301;51.440;6.610;2023-04-19T10:08:22;13.10;1.00
16384;DHT22;8301;51.440;6.610;2023-04-19T10:10:50;13.10;1.00
16384;DHT22;8301;51.440;6.610;2023-04-19T10:13:20;13.60;1.00
16384;DHT22;8301;51.440;6.610;2023-04-19T10:15:48;13.80;1.00
16384;DHT22;8301;51.440;6.610;2023-04-19T10:18:16;13.50;1.00
16384;DHT22;8301;51.440;6.610;2023-04-19T10:23:15;12.90;1.00
16384;DHT22;8301;51.440;6.610;2023-04-19T10:25:46;13.00;1.00
16384;DHT22;8301;51.440;6.610;2023-04-19T10:28:17;12.90;1.00
16384;DHT22;8301;51.440;6.610;2023-04-19T10:30:57;13.00;1.00
16384;DHT22;8301;51.440;6.610;2023-04-19T10:33:24;13.00;1.00
16384;DHT22;8301;51.440;6.610;2023-04-19T10:35:55;13.10;1.00
16384;DHT22;8301;51.440;6.610;2023-04-19T10:38:34;13.50;1.00
16384;DHT22;8301;51.440;6.610;2023-04-19T10:43:29;13.10;1.00
16384;DHT22;8301;51.440;6.610;2023-04-19T10:48:49;13.50;1.00
16384;DHT22;8301;51.440;6.610;2023-04-19T10:51:16;13.20;1.00
16384;DHT22;8301;51.440;6.610;2023-04-19T10:54:01;13.30;1.00
16384;DHT22;8301;51.440;6.610;2023-04-19T11:01:36;13.20;1.00
16384;DHT22;8301;51.440;6.610;2023-04-19T11:04:08;13.00;1.00
16384;DHT22;8301;51.440;6.610;2023-04-19T11:06:36;13.10;1.00
16384;DHT22;8301;51.440;6.610;2023-04-19T11:09:03;13.40;1.00
16384;DHT22;8301;51.440;6.610;2023-04-19T11:11:34;13.60;1.00
16384;DHT22;8301;51.440;6.610;2023-04-19T11:14:02;13.70;1.00
16384;DHT22;8301;51.440;6.610;2023-04-19T11:16:35;13.10;1.00
16384;DHT22;8301;51.440;6.610;2023-04-19T11:19:04;12.80;1.00
16384;DHT22;8301;51.440;6.610;2023-04-19T11:21:30;13.10;1.00
16384;DHT22;8301;51.440;6.610;2023-04-19T11:24:07;13.30;1.00
16384;DHT22;8301;51.440;6.610;2023-04-19T11:26:34;13.20;1.00
16384;DHT22;8301;51.440;6.610;2023-04-19T11:29:06;13.50;1.00
16384;DHT22;8301;51.440;6.610;2023-04-19T11:36:31;13.50;1.00
16384;DHT22;8301;51.440;6.610;2023-04-19T11:39:00;13.50;1.00
16384;DHT22;8301;51.440;6.610;2023-04-19T11:41:27;13.50;1.00
16384;DHT22;8301;51.440;6.610;2023-04-19T11:43:54;13.80;1.00
16384;DHT22;8301;51.440;6.610;2023-04-19T11:46:21;13.70;1.00
16384;DHT22;8301;51.440;6.610;2023-04-19T11:48:51;14.00;1.00
16384;DHT22;8301;51.440;6.610;2023-04-19T11:51:18;13.80;1.00
16384;DHT22;8301;51.440;6.610;2023-04-19T11:53:45;13.50;1.00
16384;DHT22;8301;51.440;6.610;2023-04-19T11:56:13;13.80;1.00
16384;DHT22;8301;51.440;6.610;2023-04-19T11:58:41;13.90;1.00
16384;DHT22;8301;51.440;6.610;2023-04-19T12:01:11;14.10;1.00
16384;DHT22;8301;51.440;6.610;2023-04-19T12:03:46;14.20;1.00
16384;DHT22;8301;51.440;6.610;2023-04-19T12:06:23;14.20;1.00
16384;DHT22;8301;51.440;6.610;2023-04-19T12:08:45;14.60;1.00
16384;DHT22;8301;51.440;6.610;2023-04-19T12:11:12;14.80;1.00
16384;DHT22;8301;51.440;6.610;2023-04-19T12:13:40;14.40;1.00
16384;DHT22;8301;51.440;6.610;2023-04-19T12:16:08;14.30;1.00
16384;DHT22;8301;51.440;6.610;2023-04-19T12:18:42;13.90;1.00
16384;DHT22;8301;51.440;6.610;2023-04-19T12:21:10;14.30;1.00
16384;DHT22;8301;51.440;6.610;2023-04-19T12:23:44;14.10;1.00
16384;DHT22;8301;51.440;6.610;2023-04-19T12:26:11;13.90;1.00
16384;DHT22;8301;51.440;6.610;2023-04-19T12:28:40;13.90;1.00
16384;DHT22;8301;51.440;6.610;2023-04-19T12:31:07;13.90;1.00
16384;DHT22;8301;51.440;6.610;2023-04-19T12:33:34;13.80;1.00
16384;DHT22;8301;51.440;6.610;2023-04-19T12:36:01;14.00;1.00
16384;DHT22;8301;51.440;6.610;2023-04-19T12:38:28;13.90;1.00
16384;DHT22;8301;51.440;6.610;2023-04-19T12:40:55;14.00;1.00
16384;DHT22;8301;51.440;6.610;2023-04-19T12:43:27;14.10;1.00
16384;DHT22;8301;51.440;6.610;2023-04-19T12:45:54;14.10;1.00
16384;DHT22;8301;51.440;6.610;2023-04-19T12:48:23;14.10;1.00
16384;DHT22;8301;51.440;6.610;2023-04-19T12:50:50;14.40;1.00
16384;DHT22;8301;51.440;6.610;2023-04-19T12:53:18;14.40;1.00
16384;DHT22;8301;51.440;6.610;2023-04-19T12:55:45;14.40;1.00
16384;DHT22;8301;51.440;6.610;2023-04-19T12:58:15;14.70;1.00
16384;DHT22;8301;51.440;6.610;2023-04-19T13:00:43;14.70;1.00
16384;DHT22;8301;51.440;6.610;2023-04-19T13:03:10;14.60;1.00
16384;DHT22;8301;51.440;6.610;2023-04-19T13:05:40;14.40;1.00
16384;DHT22;8301;51.440;6.610;2023-04-19T13:08:07;14.40;1.00
16384;DHT22;8301;51.440;6.610;2023-04-19T13:10:34;14.40;1.00
16384;DHT22;8301;51.440;6.610;2023-04-19T13:13:01;14.40;1.00
16384;DHT22;8301;51.440;6.610;2023-04-19T13:15:28;14.80;1.00
16384;DHT22;8301;51.440;6.610;2023-04-19T13:17:55;15.00;1.00
16384;DHT22;8301;51.440;6.610;2023-04-19T13:20:22;14.60;1.00
16384;DHT22;8301;51.440;6.610;2023-04-19T13:22:49;14.70;1.00
16384;DHT22;8301;51.440;6.610;2023-04-19T13:25:15;14.60;1.00
16384;DHT22;8301;51.440;6.610;2023-04-19T13:27:42;14.70;1.00
16384;DHT22;8301;51.440;6.610;2023-04-19T13:30:09;14.80;1.00
16384;DHT22;8301;51.440;6.610;2023-04-19T13:32:37;14.90;1.00
16384;DHT22;8301;51.440;6.610;2023-04-19T13:35:04;14.80;1.00
16384;DHT22;8301;51.440;6.610;2023-04-19T13:37:31;15.00;1.00
16384;DHT22;8301;51.440;6.610;2023-04-19T13:39:57;14.80;1.00
16384;DHT22;8301;51.440;6.610;2023-04-19T13:42:24;15.10;1.00
16384;DHT22;8301;51.440;6.610;2023-04-19T13:44:51;15.40;1.00
16384;DHT22;8301;51.440;6.610;2023-04-19T13:47:18;15.40;1.00
16384;DHT22;8301;51.440;6.610;2023-04-19T13:49:45;15.20;1.00
16384;DHT22;8301;51.440;6.610;2023-04-19T13:52:13;14.90;1.00
16384;DHT22;8301;51.440;6.610;2023-04-19T13:54:40;14.90;1.00
16384;DHT22;8301;51.440;6.610;2023-04-19T13:57:07;14.90;1.00
16384;DHT22;8301;51.440;6.610;2023-04-19T13:59:34;14.60;1.00
16384;DHT22;8301;51.440;6.610;2023-04-19T14:02:07;14.70;1.00
16384;DHT22;8301;51.440;6.610;2023-04-19T14:04:34;15.10;1.00
16384;DHT22;8301;51.440;6.610;2023-04-19T14:07:00;15.00;1.00
16384;DHT22;8301;51.440;6.610;2023-04-19T14:09:27;15.10;1.00
16384;DHT22;8301;51.440;6.610;2023-04-19T14:11:54;15.20;1.00
16384;DHT22;8301;51.440;6.610;2023-04-19T14:14:21;14.90;1.00
16384;DHT22;8301;51.440;6.610;2023-04-19T14:16:48;15.00;1.00
16384;DHT22;8301;51.440;6.610;2023-04-19T14:19:15;15.00;1.00
16384;DHT22;8301;51.440;6.610;2023-04-19T14:21:41;15.10;1.00
16384;DHT22;8301;51.440;6.610;2023-04-19T14:24:08;15.10;1.00
16384;DHT22;8301;51.440;6.610;2023-04-19T14:26:35;15.40;1.00
16384;DHT22;8301;51.440;6.610;2023-04-19T14:29:02;15.60;1.00
16384;DHT22;8301;51.440;6.610;2023-04-19T14:31:29;15.30;1.00
16384;DHT22;8301;51.440;6.610;2023-04-19T14:33:56;15.10;1.00
16384;DHT22;8301;51.440;6.610;2023-04-19T14:36:26;14.90;1.00
16384;DHT22;8301;51.440;6.610;2023-04-19T14:38:53;15.20;1.00
16384;DHT22;8301;51.440;6.610;2023-04-19T14:41:20;15.40;1.00
16384;DHT22;8301;51.440;6.610;2023-04-19T14:43:47;15.00;1.00
16384;DHT22;8301;51.440;6.610;2023-04-19T14:46:14;15.30;1.00
16384;DHT22;8301;51.440;6.610;2023-04-19T14:48:41;15.20;1.00
16384;DHT22;8301;51.440;6.610;2023-04-19T14:51:09;15.60;1.00
16384;DHT22;8301;51.440;6.610;2023-04-19T14:53:38;15.50;1.00
16384;DHT22;8301;51.440;6.610;2023-04-19T14:56:05;15.40;1.00
16384;DHT22;8301;51.440;6.610;2023-04-19T14:58:32;15.80;1.00
16384;DHT22;8301;51.440;6.610;2023-04-19T15:00:58;15.60;1.00
16384;DHT22;8301;51.440;6.610;2023-04-19T15:03:25;15.20;1.00
16384;DHT22;8301;51.440;6.610;2023-04-19T15:05:52;15.40;1.00
16384;DHT22;8301;51.440;6.610;2023-04-19T15:08:21;15.20;1.00
16384;DHT22;8301;51.440;6.610;2023-04-19T15:10:53;15.40;1.00
16384;DHT22;8301;51.440;6.610;2023-04-19T15:13:20;15.40;1.00
16384;DHT22;8301;51.440;6.610;2023-04-19T15:15:47;15.40;1.00
16384;DHT22;8301;51.440;6.610;2023-04-19T15:18:14;15.60;1.00
16384;DHT22;8301;51.440;6.610;2023-04-19T15:20:41;15.80;1.00
16384;DHT22;8301;51.440;6.610;2023-04-19T15:23:08;15.50;1.00
16384;DHT22;8301;51.440;6.610;2023-04-19T15:25:34;15.30;1.00
16384;DHT22;8301;51.440;6.610;2023-04-19T15:28:02;15.10;1.00
16384;DHT22;8301;51.440;6.610;2023-04-19T15:30:29;15.20;1.00
16384;DHT22;8301;51.440;6.610;2023-04-19T15:32:56;15.30;1.00
16384;DHT22;8301;51.440;6.610;2023-04-19T15:35:23;15.10;1.00
16384;DHT22;8301;51.440;6.610;2023-04-19T15:37:50;14.90;1.00
16384;DHT22;8301;51.440;6.610;2023-04-19T15:40:16;14.90;1.00
16384;DHT22;8301;51.440;6.610;2023-04-19T15:42:43;15.10;1.00
16384;DHT22;8301;51.440;6.610;2023-04-19T15:45:10;15.10;1.00
16384;DHT22;8301;51.440;6.610;2023-04-19T15:47:37;14.90;1.00
16384;DHT22;8301;51.440;6.610;2023-04-19T15:50:04;14.90;1.00
16384;DHT22;8301;51.440;6.610;2023-04-19T15:52:34;14.90;1.00
16384;DHT22;8301;51.440;6.610;2023-04-19T15:55:01;15.00;1.00
16384;DHT22;8301;51.440;6.610;2023-04-19T15:57:28;15.00;1.00
16384;DHT22;8301;51.440;6.610;2023-04-19T15:59:55;15.20;1.00
16384;DHT22;8301;51.440;6.610;2023-04-19T16:02:21;15.20;1.00
16384;DHT22;8301;51.440;6.610;2023-04-19T16:04:48;15.10;1.00
16384;DHT22;8301;51.440;6.610;2023-04-19T16:07:15;15.10;1.00
16384;DHT22;8301;51.440;6.610;2023-04-19T16:09:42;14.70;1.00
16384;DHT22;8301;51.440;6.610;2023-04-19T16:12:12;14.80;1.00
16384;DHT22;8301;51.440;6.610;2023-04-19T16:14:46;14.70;1.00
16384;DHT22;8301;51.440;6.610;2023-04-19T16:17:13;14.50;1.00
16384;DHT22;8301;51.440;6.610;2023-04-19T16:19:40;14.50;1.00
16384;DHT22;8301;51.440;6.610;2023-04-19T16:22:07;14.70;1.00
16384;DHT22;8301;51.440;6.610;2023-04-19T16:24:34;14.60;1.00